Time;durP1;ratioP1;P1;durP2;ratioP2;P2;SDS_P1;SDS_P2;PMS_P1;PMS_P2;Temp;Humidity;BMP_temperature;BMP_pressure;BME280_temperature;BME280_humidity;BME280_pressure;Samples;Min_cycle;Max_cycle;Signal;HPM_P1;HPM_P2
2022/03/20 00:00:53;;;;;;;8.30;3.77;;;6.30;95.20;;;;;;4966073;28;20035;-68
2022/03/20 00:03:21;;;;;;;6.07;4.23;;;6.60;98.60;;;;;;4970529;28;20049;-66
2022/03/20 00:05:47;;;;;;;7.27;4.67;;;6.30;98.50;;;;;;4972275;28;20114;-66
2022/03/20 00:08:14;;;;;;;7.43;4.30;;;6.30;91.60;;;;;;4972014;28;20041;-66
2022/03/20 00:10:49;;;;;;;9.90;4.63;;;6.40;97.80;;;;;;4968009;28;20039;-69
2022/03/20 00:13:17;;;;;;;8.50;5.17;;;6.20;91.90;;;;;;4962592;28;20098;-69
2022/03/20 00:15:45;;;;;;;10.00;5.03;;;6.20;91.80;;;;;;4970088;28;20761;-69
2022/03/20 00:18:12;;;;;;;12.57;5.53;;;6.30;99.00;;;;;;4971735;28;20030;-69
2022/03/20 00:20:47;;;;;;;9.27;5.37;;;6.20;99.00;;;;;;4971402;28;20031;-69
2022/03/20 00:23:13;;;;;;;9.53;6.10;;;6.30;95.00;;;;;;4962952;28;20485;-69
2022/03/20 00:25:44;;;;;;;9.30;5.87;;;6.20;92.00;;;;;;4970277;28;20081;-69
2022/03/20 00:28:15;;;;;;;11.87;6.83;;;6.10;98.50;;;;;;4966592;28;20031;-69
2022/03/20 00:30:42;;;;;;;9.00;5.87;;;6.20;92.80;;;;;;4971552;28;20538;-69
2022/03/20 00:33:08;;;;;;;11.13;6.10;;;6.10;93.70;;;;;;4971579;28;20113;-69
2022/03/20 00:35:34;;;;;;;8.93;5.57;;;;;;;;;;4962838;28;20046;-69
2022/03/20 00:38:00;;;;;;;14.70;6.57;;;;;;;;;;4955553;28;20038;-70
2022/03/20 00:40:26;;;;;;;12.77;6.20;;;;;;;;;;4971345;28;20023;-69
2022/03/20 00:42:52;;;;;;;11.17;6.73;;;6.00;93.70;;;;;;4969155;28;20114;-69
2022/03/20 00:45:18;;;;;;;14.20;7.13;;;;;;;;;;4952380;29;20469;-69
2022/03/20 00:47:44;;;;;;;14.83;7.70;;;5.90;97.60;;;;;;4964077;28;20044;-69
2022/03/20 00:50:10;;;;;;;15.00;8.00;;;6.00;95.50;;;;;;4971527;28;20045;-70
2022/03/20 00:52:36;;;;;;;15.30;9.33;;;;;;;;;;4960798;28;20035;-70
2022/03/20 00:55:02;;;;;;;13.40;8.67;;;5.90;99.50;;;;;;4951912;29;20396;-69
2022/03/20 00:57:28;;;;;;;13.47;9.00;;;5.90;99.30;;;;;;4962262;28;20030;-69
2022/03/20 00:59:53;;;;;;;15.23;8.87;;;6.00;99.40;;;;;;4969997;28;20428;-66
2022/03/20 01:02:19;;;;;;;12.83;8.80;;;;;;;;;;4956599;28;20038;-67
2022/03/20 01:04:45;;;;;;;15.60;8.97;;;5.80;99.50;;;;;;4958458;28;20035;-66
2022/03/20 01:07:11;;;;;;;15.77;9.83;;;;;;;;;;4952019;29;20031;-67
2022/03/20 01:09:40;;;;;;;15.60;9.57;;;6.00;99.60;;;;;;4962703;28;20056;-67
2022/03/20 01:12:08;;;;;;;18.47;11.00;;;5.80;92.90;;;;;;4971417;28;20082;-67
2022/03/20 01:14:34;;;;;;;17.17;11.17;;;5.90;99.70;;;;;;4955148;28;20035;-67
2022/03/20 01:17:00;;;;;;;14.43;10.27;;;5.60;99.70;;;;;;4968550;28;20038;-67
2022/03/20 01:19:26;;;;;;;17.50;11.90;;;5.70;99.90;;;;;;4956202;28;20035;-67
2022/03/20 01:21:54;;;;;;;21.67;11.63;;;5.60;93.00;;;;;;4951894;28;20495;-66
2022/03/20 01:24:21;;;;;;;12.30;9.37;;;;;;;;;;4964968;28;20027;-66
2022/03/20 01:26:46;;;;;;;13.53;10.80;;;5.60;99.90;;;;;;4957211;28;20034;-66
2022/03/20 01:29:12;;;;;;;18.97;10.80;;;5.40;99.90;;;;;;4968431;28;20034;-67
2022/03/20 01:31:38;;;;;;;18.50;11.17;;;5.30;99.90;;;;;;4951793;28;20389;-67
2022/03/20 01:34:04;;;;;;;12.43;9.00;;;5.20;99.90;;;;;;4968217;28;20025;-66
2022/03/20 01:36:30;;;;;;;13.70;8.90;;;;;;;;;;4967638;28;20463;-66
2022/03/20 01:38:56;;;;;;;17.97;9.93;;;4.90;99.90;;;;;;4951860;29;20102;-67
2022/03/20 01:41:23;;;;;;;14.67;9.43;;;4.30;93.60;;;;;;4967440;28;20041;-67
2022/03/20 01:43:59;;;;;;;14.87;9.63;;;4.80;94.00;;;;;;4973871;28;20022;-66
2022/03/20 01:46:24;;;;;;;15.40;10.33;;;4.80;99.90;;;;;;4958252;28;20031;-66
2022/03/20 01:48:50;;;;;;;16.37;10.07;;;4.70;99.90;;;;;;4955331;28;20114;-66
2022/03/20 01:51:17;;;;;;;15.67;10.23;;;4.70;99.90;;;;;;4963961;28;20081;-67
2022/03/20 01:53:44;;;;;;;13.63;9.90;;;4.70;99.90;;;;;;4974707;28;20173;-67
2022/03/20 01:56:10;;;;;;;14.07;9.50;;;4.70;95.20;;;;;;4974364;28;20039;-67
2022/03/20 01:58:36;;;;;;;15.57;9.47;;;;;;;;;;4955413;28;20059;-66
2022/03/20 02:01:03;;;;;;;12.77;8.83;;;4.80;99.90;;;;;;4965550;28;20035;-67
2022/03/20 02:03:30;;;;;;;13.50;8.47;;;4.70;95.80;;;;;;4967156;28;20050;-67
2022/03/20 02:05:56;;;;;;;13.77;8.93;;;4.90;99.90;;;;;;4955039;29;20031;-66
2022/03/20 02:08:26;;;;;;;15.07;9.27;;;4.70;99.90;;;;;;4962167;28;20480;-66
2022/03/20 02:10:52;;;;;;;13.63;9.03;;;4.70;99.90;;;;;;4974372;28;20039;-67
2022/03/20 02:13:21;;;;;;;11.37;8.17;;;4.70;99.90;;;;;;4974144;28;20038;-67
2022/03/20 02:15:48;;;;;;;13.10;7.90;;;4.70;99.90;;;;;;4955484;28;20035;-67
2022/03/20 02:18:14;;;;;;;13.47;8.33;;;4.80;99.90;;;;;;4960255;28;20062;-67
2022/03/20 02:20:41;;;;;;;11.70;7.83;;;;;;;;;;4974372;28;20034;-67
2022/03/20 02:23:07;;;;;;;13.07;7.70;;;4.70;99.90;;;;;;4969673;28;20030;-67
2022/03/20 02:25:33;;;;;;;10.77;7.47;;;;;;;;;;4971830;28;20049;-67
2022/03/20 02:27:59;;;;;;;15.40;8.30;;;4.50;99.90;;;;;;4961018;28;20031;-66
2022/03/20 02:30:30;;;;;;;11.77;7.83;;;4.80;99.90;;;;;;4967711;28;20136;-67
2022/03/20 02:32:56;;;;;;;12.00;7.07;;;4.90;99.90;;;;;;4974084;28;20384;-67
2022/03/20 02:35:22;;;;;;;10.63;7.47;;;;;;;;;;4973338;28;20034;-66
2022/03/20 02:37:50;;;;;;;10.87;7.40;;;4.70;98.10;;;;;;4972277;28;20030;-67
2022/03/20 02:40:19;;;;;;;9.83;7.17;;;4.70;98.00;;;;;;4954676;29;20110;-66
2022/03/20 02:42:48;;;;;;;17.27;8.33;;;4.60;99.90;;;;;;4961269;28;20030;-66
2022/03/20 02:45:23;;;;;;;16.03;9.73;;;4.60;99.90;;;;;;4973945;28;20472;-66
2022/03/20 02:47:51;;;;;;;12.90;7.87;;;4.60;98.70;;;;;;4966133;28;20113;-68
2022/03/20 02:50:28;;;;;;;15.20;8.27;;;4.70;99.90;;;;;;4960927;28;20030;-69
2022/03/20 02:52:56;;;;;;;9.90;7.53;;;4.60;99.90;;;;;;4965765;28;20038;-69
2022/03/20 02:55:30;;;;;;;14.60;8.93;;;4.70;97.90;;;;;;4954149;29;20034;-68
2022/03/20 02:57:57;;;;;;;16.83;9.60;;;4.60;99.90;;;;;;4963116;28;20027;-68
2022/03/20 03:00:26;;;;;;;11.97;8.50;;;4.60;99.90;;;;;;4968162;28;20115;-68
2022/03/20 03:02:54;;;;;;;13.23;8.63;;;4.60;99.90;;;;;;4971967;28;20041;-67
2022/03/20 03:05:21;;;;;;;13.33;8.50;;;4.50;99.90;;;;;;4973510;28;20046;-67
2022/03/20 03:13:21;;;;;;;14.47;9.23;;;4.40;99.90;;;;;;4954326;28;20038;-68
2022/03/20 03:15:46;;;;;;;15.43;9.60;;;4.40;99.90;;;;;;4954170;29;20472;-68
2022/03/20 03:18:12;;;;;;;16.67;10.00;;;4.60;99.90;;;;;;4963269;28;20023;-68
2022/03/20 03:20:37;;;;;;;20.60;9.70;;;4.50;99.90;;;;;;4973385;28;20117;-68
2022/03/20 03:23:04;;;;;;;16.57;10.27;;;4.60;99.90;;;;;;4963491;28;20023;-68
2022/03/20 03:25:32;;;;;;;15.37;9.37;;;4.40;99.10;;;;;;4963525;28;20031;-68
2022/03/20 03:27:59;;;;;;;15.53;10.50;;;;;;;;;;4961630;28;20085;-68
2022/03/20 03:30:25;;;;;;;17.60;9.67;;;;;;;;;;4955037;28;20099;-67
2022/03/20 03:32:52;;;;;;;18.00;10.80;;;4.50;98.80;;;;;;4966261;28;20480;-67
2022/03/20 03:38:02;;;;;;;17.00;10.48;;;3.80;99.00;;;;;;4957825;28;20066;-68
2022/03/20 03:40:28;;;;;;;20.10;11.37;;;4.40;99.90;;;;;;4961486;28;20063;-68
2022/03/20 03:42:54;;;;;;;14.10;10.70;;;;;;;;;;4965000;28;20059;-68
2022/03/20 03:45:22;;;;;;;15.20;10.70;;;4.50;99.90;;;;;;4953348;29;20042;-68
2022/03/20 03:47:48;;;;;;;21.00;11.37;;;4.30;99.90;;;;;;4960239;28;20052;-67
2022/03/20 03:50:14;;;;;;;20.20;11.43;;;4.40;99.90;;;;;;4972986;28;20475;-68
2022/03/20 03:52:40;;;;;;;20.07;11.40;;;;;;;;;;4967238;28;20118;-68
2022/03/20 03:55:06;;;;;;;22.30;13.00;;;4.30;99.90;;;;;;4972585;28;20133;-68
2022/03/20 03:57:32;;;;;;;18.17;13.17;;;4.50;98.60;;;;;;4970979;28;20105;-68
2022/03/20 03:59:58;;;;;;;17.27;12.20;;;4.50;99.90;;;;;;4963629;28;20839;-68
2022/03/20 04:02:24;;;;;;;17.70;11.80;;;;;;;;;;4952770;28;20033;-68
2022/03/20 04:04:50;;;;;;;19.17;11.87;;;4.60;99.90;;;;;;4952691;28;20114;-68
2022/03/20 04:07:17;;;;;;;15.77;11.43;;;;;;;;;;4955284;28;20103;-68
2022/03/20 04:09:43;;;;;;;17.03;11.07;;;4.60;98.50;;;;;;4972512;28;20408;-68
2022/03/20 04:12:10;;;;;;;17.43;13.27;;;4.60;99.90;;;;;;4970442;28;20030;-68
2022/03/20 04:14:35;;;;;;;19.70;12.93;;;4.50;99.90;;;;;;4951987;28;21203;-68
2022/03/20 04:17:01;;;;;;;24.03;13.43;;;4.50;99.90;;;;;;4954933;28;20155;-68
2022/03/20 04:19:27;;;;;;;22.90;13.40;;;;;;;;;;4969720;28;20080;-67
2022/03/20 04:21:53;;;;;;;15.00;10.40;;;4.60;99.90;;;;;;4970696;28;20023;-68
2022/03/20 04:24:19;;;;;;;19.13;13.60;;;4.60;99.90;;;;;;4961890;28;20038;-68
2022/03/20 04:26:44;;;;;;;23.77;12.80;;;4.70;99.90;;;;;;4963970;28;20365;-68
2022/03/20 04:29:10;;;;;;;21.13;13.77;;;;;;;;;;4968889;28;20026;-67
2022/03/20 04:31:36;;;;;;;20.70;13.00;;;4.70;99.90;;;;;;4955450;28;20043;-68
2022/03/20 04:34:02;;;;;;;16.80;11.60;;;4.60;99.90;;;;;;4955306;28;20034;-68
2022/03/20 04:36:28;;;;;;;22.47;13.73;;;4.80;99.90;;;;;;4952864;28;20035;-68
2022/03/20 04:38:55;;;;;;;17.30;12.60;;;4.60;97.60;;;;;;4962460;28;20106;-67
2022/03/20 04:41:21;;;;;;;15.47;11.77;;;;;;;;;;4959314;28;20027;-68
2022/03/20 04:43:48;;;;;;;18.87;13.53;;;4.80;99.90;;;;;;4972211;28;20077;-67
2022/03/20 04:46:14;;;;;;;20.37;12.83;;;4.60;99.90;;;;;;4965847;28;20086;-68
2022/03/20 04:59:38;;;;;;;21.07;13.33;;;4.70;99.90;;;;;;4953291;28;20129;-68
2022/03/20 05:02:04;;;;;;;20.53;13.30;;;4.90;99.90;;;;;;4956241;28;20122;-68
2022/03/20 05:04:29;;;;;;;23.03;12.83;;;4.90;99.90;;;;;;4950786;29;20047;-67
2022/03/20 05:06:55;;;;;;;21.40;14.13;;;;;;;;;;4965683;28;20050;-68
2022/03/20 05:14:50;;;;;;;;;;;5.00;95.90;;;;;;4971111;28;20144;-68
2022/03/20 05:17:16;;;;;;;23.43;14.27;;;;;;;;;;4968486;28;20701;-68
2022/03/20 05:19:42;;;;;;;22.87;14.33;;;4.80;99.90;;;;;;4952336;29;20054;-68
2022/03/20 05:22:10;;;;;;;22.90;14.23;;;4.80;99.90;;;;;;4952981;28;20035;-68
2022/03/20 05:24:36;;;;;;;19.50;13.50;;;4.80;99.90;;;;;;4964301;28;20082;-67
2022/03/20 05:27:03;;;;;;;21.93;13.73;;;5.00;99.90;;;;;;4967156;28;20093;-67
2022/03/20 05:29:29;;;;;;;23.00;15.77;;;;;;;;;;4958913;28;20042;-67
2022/03/20 05:31:56;;;;;;;21.03;13.90;;;4.80;99.90;;;;;;4964756;28;20034;-67
2022/03/20 05:34:22;;;;;;;23.17;14.60;;;4.80;99.90;;;;;;4968880;28;20157;-67
2022/03/20 05:36:49;;;;;;;22.37;15.17;;;4.90;95.40;;;;;;4971147;28;20038;-67
2022/03/20 05:39:15;;;;;;;21.20;12.40;;;;;;;;;;4970445;28;20082;-67
2022/03/20 05:41:47;;;;;;;19.20;15.27;;;4.90;99.90;;;;;;4970485;28;20117;-68
2022/03/20 05:44:13;;;;;;;20.60;14.57;;;;;;;;;;4966641;28;20023;-67
2022/03/20 05:46:39;;;;;;;23.57;15.50;;;4.70;99.90;;;;;;4970542;28;20035;-68
2022/03/20 05:49:05;;;;;;;20.90;14.43;;;;;;;;;;4970546;28;20081;-67
2022/03/20 05:51:31;;;;;;;21.43;16.17;;;4.50;99.90;;;;;;4970030;28;20543;-67
2022/03/20 05:53:57;;;;;;;24.73;14.37;;;5.30;99.90;;;;;;4955585;28;20049;-68
2022/03/20 05:59:08;;;;;;;22.60;14.60;;;4.80;97.30;;;;;;4953563;28;20034;-67
2022/03/20 06:01:34;;;;;;;25.07;15.73;;;;;;;;;;4959652;28;20114;-67
2022/03/20 06:04:00;;;;;;;20.47;14.60;;;4.70;99.90;;;;;;4952255;28;20027;-67
2022/03/20 06:06:29;;;;;;;19.40;13.20;;;4.90;99.90;;;;;;4971089;28;20030;-67
2022/03/20 06:08:55;;;;;;;21.93;13.97;;;4.80;99.90;;;;;;4970347;28;20492;-67
2022/03/20 06:11:21;;;;;;;20.57;14.43;;;;;;;;;;4970742;28;20066;-67
2022/03/20 06:13:48;;;;;;;21.47;13.87;;;4.80;99.90;;;;;;4953767;28;20122;-67
2022/03/20 06:16:15;;;;;;;20.20;15.10;;;4.70;99.90;;;;;;4951651;28;20070;-67
2022/03/20 06:18:42;;;;;;;22.90;14.63;;;4.70;99.90;;;;;;4952804;28;20078;-67
2022/03/20 06:21:09;;;;;;;28.43;15.07;;;4.80;99.10;;;;;;4967869;28;20050;-67
2022/03/20 06:23:35;;;;;;;27.07;13.73;;;;;;;;;;4967792;28;20035;-67
2022/03/20 06:26:01;;;;;;;25.60;16.17;;;4.90;99.90;;;;;;4970569;28;20497;-67
2022/03/20 06:28:27;;;;;;;23.67;15.73;;;4.80;99.90;;;;;;4969201;28;20109;-67
2022/03/20 06:30:53;;;;;;;20.47;14.33;;;;;;;;;;4959825;28;20035;-67
2022/03/20 06:33:19;;;;;;;20.60;14.30;;;5.00;99.90;;;;;;4957896;28;20037;-67
2022/03/20 06:35:44;;;;;;;23.83;14.87;;;4.80;99.90;;;;;;4974375;28;20035;-67
2022/03/20 06:38:10;;;;;;;19.50;14.67;;;5.00;97.10;;;;;;4971646;28;20547;-67
2022/03/20 06:40:35;;;;;;;21.27;14.10;;;4.70;99.90;;;;;;4961463;28;20063;-67
2022/03/20 06:43:02;;;;;;;19.97;14.47;;;;;;;;;;4973169;28;20168;-67
2022/03/20 06:45:27;;;;;;;21.93;15.53;;;5.00;99.90;;;;;;4961388;28;20070;-67
2022/03/20 06:47:53;;;;;;;27.40;15.83;;;;;;;;;;4954541;28;20031;-67
2022/03/20 06:50:19;;;;;;;22.30;15.23;;;4.80;99.90;;;;;;4954746;29;20082;-67
2022/03/20 06:52:44;;;;;;;20.43;15.40;;;4.60;99.90;;;;;;4960797;28;20035;-67
2022/03/20 06:55:12;;;;;;;26.07;14.07;;;4.80;99.90;;;;;;4973696;28;20043;-67
2022/03/20 06:57:41;;;;;;;20.20;14.97;;;4.60;99.90;;;;;;4971732;28;20027;-69
2022/03/20 07:00:07;;;;;;;22.80;13.97;;;;;;;;;;4967083;28;20058;-67
2022/03/20 07:02:33;;;;;;;24.47;14.87;;;4.80;99.90;;;;;;4963622;28;20041;-67
2022/03/20 07:05:00;;;;;;;22.33;15.27;;;4.70;99.90;;;;;;4973316;28;20031;-67
2022/03/20 07:07:26;;;;;;;21.37;15.00;;;;;;;;;;4966038;28;20392;-67
2022/03/20 07:09:52;;;;;;;25.30;15.67;;;4.80;99.90;;;;;;4973082;28;20057;-67
2022/03/20 07:12:18;;;;;;;26.67;16.97;;;4.60;93.70;;;;;;4968714;28;20053;-67
2022/03/20 07:14:44;;;;;;;23.13;15.20;;;4.80;99.90;;;;;;4968377;28;20406;-67
2022/03/20 07:17:12;;;;;;;21.47;15.47;;;4.90;97.20;;;;;;4973230;28;20034;-67
2022/03/20 07:19:40;;;;;;;20.63;15.53;;;4.80;98.40;;;;;;4971819;28;20030;-67
2022/03/20 07:22:06;;;;;;;26.40;15.47;;;4.80;99.90;;;;;;4970078;28;20061;-68
2022/03/20 07:24:36;;;;;;;20.77;15.47;;;4.80;92.10;;;;;;4954331;28;20038;-67
2022/03/20 07:29:46;;;;;;;23.27;15.40;;;5.40;99.70;;;;;;4956708;28;20807;-68
2022/03/20 07:32:11;;;;;;;23.63;15.70;;;5.10;99.60;;;;;;4960599;28;20055;-68
2022/03/20 07:34:39;;;;;;;25.50;15.27;;;5.00;92.50;;;;;;4972955;28;20062;-67
2022/03/20 07:37:06;;;;;;;23.40;17.17;;;5.10;99.50;;;;;;4972374;28;20443;-68
2022/03/20 07:39:32;;;;;;;26.70;15.63;;;5.10;93.10;;;;;;4951940;28;20378;-67
2022/03/20 07:41:58;;;;;;;21.60;15.27;;;;;;;;;;4971633;28;20077;-68
2022/03/20 07:44:25;;;;;;;22.80;14.90;;;5.20;99.20;;;;;;4953465;29;20054;-67
2022/03/20 07:46:54;;;;;;;23.67;17.23;;;5.40;98.40;;;;;;4953371;28;20039;-67
2022/03/20 07:49:20;;;;;;;24.03;16.97;;;5.40;98.70;;;;;;4972445;28;20030;-67
2022/03/20 07:51:46;;;;;;;25.83;17.00;;;5.60;98.50;;;;;;4973071;28;20045;-67
2022/03/20 07:54:12;;;;;;;29.53;17.53;;;;;;;;;;4953554;28;20078;-67
2022/03/20 07:56:38;;;;;;;20.23;15.10;;;5.40;98.70;;;;;;4972112;28;20050;-68
2022/03/20 07:59:07;;;;;;;25.30;16.33;;;5.20;94.40;;;;;;4960439;28;20023;-66
2022/03/20 08:01:42;;;;;;;24.50;16.60;;;5.30;92.30;;;;;;4970860;28;20085;-67
2022/03/20 08:04:07;;;;;;;21.93;15.83;;;5.30;98.40;;;;;;4957892;28;20089;-66
2022/03/20 08:06:33;;;;;;;25.53;16.43;;;5.30;98.20;;;;;;4979357;28;20532;-67
2022/03/20 08:08:59;;;;;;;20.93;16.80;;;5.50;98.20;;;;;;4991254;28;20038;-66
2022/03/20 08:11:26;;;;;;;22.20;16.27;;;5.60;97.60;;;;;;4976243;28;20038;-67
2022/03/20 08:13:52;;;;;;;24.70;17.40;;;;;;;;;;4972071;28;20035;-66
2022/03/20 08:16:19;;;;;;;23.97;16.97;;;5.80;97.40;;;;;;4972303;28;20031;-67
2022/03/20 08:18:45;;;;;;;20.93;15.50;;;5.60;97.30;;;;;;4972533;28;20015;-67
2022/03/20 08:21:11;;;;;;;19.57;15.53;;;5.80;94.20;;;;;;4968496;28;20640;-67
2022/03/20 08:23:38;;;;;;;22.33;15.83;;;5.80;96.00;;;;;;4964411;28;20028;-67
2022/03/20 08:26:03;;;;;;;23.20;16.17;;;6.00;96.90;;;;;;4977851;28;20026;-67
2022/03/20 08:28:29;;;;;;;22.30;16.83;;;5.90;96.80;;;;;;4991223;28;20355;-67
2022/03/20 08:30:55;;;;;;;27.97;18.70;;;;;;;;;;4972537;28;20027;-67
2022/03/20 08:33:20;;;;;;;25.33;17.30;;;6.30;96.40;;;;;;4972110;28;20097;-67
2022/03/20 08:35:46;;;;;;;28.73;18.27;;;;;;;;;;4972231;28;20041;-67
2022/03/20 08:38:12;;;;;;;27.77;17.53;;;6.30;95.80;;;;;;4971550;28;20026;-67
2022/03/20 08:40:37;;;;;;;25.67;17.57;;;6.50;95.80;;;;;;4971854;28;20433;-67
2022/03/20 08:43:04;;;;;;;24.33;18.13;;;6.30;95.20;;;;;;4965804;28;20031;-67
2022/03/20 08:45:31;;;;;;;26.97;18.40;;;6.50;87.50;;;;;;4970902;28;20027;-67
2022/03/20 08:47:58;;;;;;;28.80;18.53;;;6.70;85.50;;;;;;4958352;28;20043;-67
2022/03/20 08:50:24;;;;;;;26.57;18.23;;;6.60;95.00;;;;;;4952597;28;20114;-67
2022/03/20 08:52:50;;;;;;;22.03;16.17;;;6.60;94.60;;;;;;4954051;28;20035;-67
2022/03/20 08:55:16;;;;;;;23.83;16.97;;;6.80;84.40;;;;;;4975814;28;20368;-67
2022/03/20 08:57:44;;;;;;;25.70;17.40;;;6.80;94.50;;;;;;4991248;28;20110;-67
2022/03/20 09:00:13;;;;;;;27.13;17.77;;;6.80;94.30;;;;;;4972266;28;20034;-67
2022/03/20 09:02:39;;;;;;;25.33;18.37;;;;;;;;;;4971647;28;20046;-67
2022/03/20 09:05:05;;;;;;;26.40;18.63;;;6.80;94.10;;;;;;4971419;28;20035;-67
2022/03/20 09:07:31;;;;;;;26.47;17.83;;;7.20;94.20;;;;;;4971287;28;20027;-67
2022/03/20 09:09:56;;;;;;;25.30;18.13;;;6.90;94.10;;;;;;4971277;28;20047;-67
2022/03/20 09:12:23;;;;;;;24.13;18.03;;;;;;;;;;4971136;28;20055;-67
2022/03/20 09:14:49;;;;;;;30.03;18.43;;;;;;;;;;4965723;28;20063;-67
2022/03/20 09:19:59;;;;;;;27.17;20.00;;;;;;;;;;4980489;28;20134;-67
2022/03/20 09:22:29;;;;;;;27.30;17.70;;;7.40;93.40;;;;;;4962887;28;20106;-66
2022/03/20 09:24:54;;;;;;;26.93;18.63;;;7.40;93.10;;;;;;4955607;28;20045;-67
2022/03/20 09:27:22;;;;;;;26.40;18.73;;;7.40;93.00;;;;;;4970211;28;20516;-67
2022/03/20 09:29:48;;;;;;;26.67;19.63;;;7.40;88.50;;;;;;4971150;28;20027;-67
2022/03/20 09:32:14;;;;;;;27.17;19.60;;;7.70;92.60;;;;;;4968887;28;20031;-67
2022/03/20 09:34:39;;;;;;;28.90;19.30;;;7.70;92.70;;;;;;4951902;29;20034;-67
2022/03/20 09:37:05;;;;;;;25.47;18.33;;;7.70;81.90;;;;;;4950113;29;20038;-68
2022/03/20 09:39:31;;;;;;;34.03;20.83;;;7.60;92.50;;;;;;4934304;29;20497;-68
2022/03/20 09:41:58;;;;;;;25.73;18.33;;;7.90;92.50;;;;;;4956909;28;20042;-68
2022/03/20 09:44:25;;;;;;;28.83;19.37;;;7.80;83.50;;;;;;4971004;28;20034;-68
2022/03/20 09:46:51;;;;;;;26.03;18.30;;;8.10;92.50;;;;;;4971075;28;20074;-68
2022/03/20 09:49:18;;;;;;;38.00;19.87;;;8.20;89.70;;;;;;4959512;28;20090;-68
2022/03/20 09:51:44;;;;;;;26.27;19.13;;;8.60;92.00;;;;;;4951653;28;20393;-68
2022/03/20 09:54:13;;;;;;;29.50;19.43;;;8.70;92.00;;;;;;4951412;29;20035;-68
2022/03/20 09:56:40;;;;;;;25.73;19.43;;;8.80;91.70;;;;;;4951846;28;20059;-68
2022/03/20 09:59:06;;;;;;;26.17;18.50;;;;;;;;;;4951576;28;20096;-68
2022/03/20 10:01:34;;;;;;;27.30;20.20;;;8.70;91.70;;;;;;4951639;29;20035;-68
2022/03/20 10:04:16;;;;;;;23.90;18.07;;;9.00;91.50;;;;;;4951318;28;20460;-68
2022/03/20 10:06:43;;;;;;;24.47;17.77;;;8.70;91.50;;;;;;4966699;28;20046;-68
2022/03/20 10:09:13;;;;;;;21.63;17.00;;;8.70;76.10;;;;;;4964029;28;20035;-67
2022/03/20 10:11:46;;;;;;;25.63;18.83;;;8.80;91.70;;;;;;4974503;28;20038;-68
2022/03/20 10:14:23;;;;;;;26.47;19.33;;;8.80;91.10;;;;;;4974298;28;20484;-68
2022/03/20 10:17:13;;;;;;;28.40;19.70;;;8.90;77.70;;;;;;4974379;28;20027;-68
2022/03/20 10:19:39;;;;;;;28.47;20.80;;;;;;;;;;4973033;28;20037;-68
2022/03/20 10:22:07;;;;;;;27.67;20.30;;;9.10;91.10;;;;;;4974235;28;20106;-68
2022/03/20 10:24:38;;;;;;;27.00;20.37;;;6.70;74.90;;;;;;4969586;28;20026;-68
2022/03/20 10:27:03;;;;;;;29.20;21.10;;;9.10;91.00;;;;;;4986284;28;20030;-68
2022/03/20 10:29:32;;;;;;;27.63;21.10;;;8.90;90.90;;;;;;4993588;28;20018;-68
2022/03/20 10:32:11;;;;;;;28.30;20.20;;;8.90;91.00;;;;;;4974552;28;20062;-68
2022/03/20 10:34:48;;;;;;;26.67;18.13;;;8.90;75.30;;;;;;4973557;28;20034;-68
2022/03/20 10:37:15;;;;;;;25.87;19.97;;;9.00;91.30;;;;;;4955427;28;20154;-68
2022/03/20 10:39:42;;;;;;;29.73;22.07;;;;;;;;;;4955219;28;20055;-68
2022/03/20 10:42:11;;;;;;;25.77;19.63;;;9.10;91.20;;;;;;4960893;28;20605;-68
2022/03/20 10:44:38;;;;;;;28.10;20.37;;;9.10;91.20;;;;;;4973214;28;20066;-68
2022/03/20 10:47:12;;;;;;;28.13;19.33;;;9.20;90.90;;;;;;4973814;28;20476;-68
2022/03/20 10:49:42;;;;;;;;;;;7.20;74.30;;;;;;4973882;28;20392;-68
2022/03/20 10:52:11;;;;;;;28.23;19.80;;;9.30;76.90;;;;;;4972041;28;20012;-68
2022/03/20 10:54:39;;;;;;;29.50;21.13;;;9.10;76.40;;;;;;4954566;28;20464;-68
2022/03/20 10:57:08;;;;;;;27.57;20.83;;;9.20;91.10;;;;;;4957159;28;20050;-68
2022/03/20 10:59:34;;;;;;;31.70;20.87;;;8.80;90.90;;;;;;4973844;28;20106;-68
2022/03/20 11:02:00;;;;;;;33.17;22.73;;;8.80;91.00;;;;;;4972916;28;20105;-68
2022/03/20 11:04:27;;;;;;;30.60;21.30;;;8.80;91.10;;;;;;4973548;28;20034;-68
2022/03/20 11:06:54;;;;;;;29.77;21.73;;;8.80;91.30;;;;;;4969230;28;20027;-68
2022/03/20 11:09:21;;;;;;;31.47;21.57;;;8.90;81.10;;;;;;4952613;28;20043;-67
2022/03/20 11:11:50;;;;;;;29.07;21.50;;;9.00;78.20;;;;;;4953022;28;20063;-68
2022/03/20 11:14:20;;;;;;;28.83;21.33;;;8.80;78.50;;;;;;4973196;28;20027;-68
2022/03/20 11:16:56;;;;;;;25.30;19.93;;;8.70;80.10;;;;;;4987377;28;20042;-66
2022/03/20 11:19:30;;;;;;;27.43;21.17;;;8.90;77.30;;;;;;4989243;28;20030;-67
2022/03/20 11:22:06;;;;;;;29.87;20.93;;;9.10;91.80;;;;;;4976751;28;20536;-68
2022/03/20 11:24:33;;;;;;;30.40;21.37;;;9.30;91.60;;;;;;4963005;28;20015;-67
2022/03/20 11:27:01;;;;;;;26.97;20.37;;;9.70;84.30;;;;;;4973284;28;20026;-68
2022/03/20 11:29:30;;;;;;;27.20;19.63;;;9.80;91.40;;;;;;4973128;28;20026;-68
2022/03/20 11:32:00;;;;;;;32.20;22.43;;;9.90;76.90;;;;;;4970800;28;20082;-68
2022/03/20 11:34:26;;;;;;;28.70;21.83;;;10.00;91.00;;;;;;4972981;28;20295;-68
2022/03/20 11:37:07;;;;;;;30.93;22.40;;;9.90;90.90;;;;;;4968471;28;20027;-68
2022/03/20 11:39:34;;;;;;;31.80;24.03;;;9.50;90.70;;;;;;4954837;28;20031;-68
2022/03/20 11:42:25;;;;;;;27.20;22.10;;;9.80;91.00;;;;;;4953383;28;20038;-68
2022/03/20 11:45:13;;;;;;;31.43;22.17;;;9.80;91.40;;;;;;4953281;28;20046;-68
2022/03/20 11:47:40;;;;;;;27.43;21.37;;;9.60;91.50;;;;;;4953270;28;20034;-68
2022/03/20 11:50:11;;;;;;;31.87;24.50;;;9.80;91.60;;;;;;4953257;28;20038;-68
2022/03/20 11:52:49;;;;;;;28.77;24.17;;;9.90;88.70;;;;;;4969193;28;20035;-68
2022/03/20 11:55:34;;;;;;;28.90;22.57;;;9.80;76.20;;;;;;4992265;28;20042;-68
2022/03/20 11:58:03;;;;;;;30.60;22.27;;;9.70;91.60;;;;;;4979099;28;20029;-68
2022/03/20 12:00:31;;;;;;;36.03;24.80;;;9.80;85.30;;;;;;4968355;28;20026;-67
2022/03/20 12:03:14;;;;;;;31.77;23.97;;;9.70;91.60;;;;;;4971937;28;20023;-66
2022/03/20 12:05:58;;;;;;;32.93;21.73;;;9.60;91.80;;;;;;4970833;28;20103;-67
2022/03/20 12:09:01;;;;;;;30.10;22.47;;;9.80;88.00;;;;;;4958225;28;20027;-67
2022/03/20 12:11:50;;;;;;;31.93;22.10;;;9.70;76.70;;;;;;4952803;29;20047;-67
2022/03/20 12:14:39;;;;;;;34.80;21.77;;;9.70;76.40;;;;;;4952718;28;20027;-68
2022/03/20 12:17:05;;;;;;;31.87;22.40;;;9.80;91.70;;;;;;4953021;28;20023;-67
2022/03/20 12:19:49;;;;;;;26.77;20.50;;;10.00;76.40;;;;;;4952794;28;20019;-68
2022/03/20 12:22:29;;;;;;;30.40;21.67;;;10.00;79.00;;;;;;4967560;28;20042;-67
2022/03/20 12:25:01;;;;;;;27.97;22.50;;;10.00;91.50;;;;;;4963944;28;20022;-68
2022/03/20 12:27:26;;;;;;;29.17;21.77;;;10.00;91.50;;;;;;4971445;28;20050;-67
2022/03/20 12:30:04;;;;;;;28.53;23.03;;;10.20;91.40;;;;;;4968150;28;20027;-68
2022/03/20 12:32:52;;;;;;;33.10;22.67;;;9.90;77.10;;;;;;4970753;28;20035;-66
2022/03/20 12:35:20;;;;;;;29.60;23.53;;;10.20;91.40;;;;;;4962427;28;20043;-66
2022/03/20 12:37:45;;;;;;;33.77;24.23;;;10.20;91.40;;;;;;4951787;29;20401;-66
2022/03/20 12:40:11;;;;;;;30.20;22.17;;;;;;;;;;4963041;28;20027;-66
2022/03/20 12:42:39;;;;;;;28.00;21.47;;;10.10;91.10;;;;;;4955468;28;20109;-66
2022/03/20 12:45:08;;;;;;;29.73;22.43;;;10.20;85.70;;;;;;4962781;28;20381;-66
2022/03/20 12:47:35;;;;;;;30.90;21.63;;;10.40;90.60;;;;;;4971653;28;20041;-67
2022/03/20 12:50:06;;;;;;;31.03;22.13;;;10.50;90.60;;;;;;4971652;28;20054;-68
2022/03/20 12:52:33;;;;;;;27.83;21.60;;;10.30;90.70;;;;;;4967103;28;20024;-68
2022/03/20 12:55:10;;;;;;;32.07;24.43;;;10.40;90.60;;;;;;4963428;28;20495;-67
2022/03/20 12:57:48;;;;;;;28.23;22.93;;;10.40;90.70;;;;;;4953995;28;20027;-66
2022/03/20 13:00:21;;;;;;;29.07;23.57;;;10.40;83.10;;;;;;4971345;28;20035;-68
2022/03/20 13:03:03;;;;;;;30.40;23.77;;;10.20;74.60;;;;;;4971566;28;20097;-68
2022/03/20 13:05:31;;;;;;;27.93;23.30;;;10.30;91.00;;;;;;4957325;28;20039;-68
2022/03/20 13:07:57;;;;;;;27.43;21.33;;;;;;;;;;4952359;28;20046;-67
2022/03/20 13:10:24;;;;;;;26.00;20.83;;;10.20;91.20;;;;;;4952796;28;20057;-67
2022/03/20 13:12:50;;;;;;;31.03;22.13;;;10.20;91.30;;;;;;4951657;28;20082;-68
2022/03/20 13:15:28;;;;;;;28.87;22.83;;;10.10;75.50;;;;;;4960350;28;20035;-68
2022/03/20 13:17:54;;;;;;;32.20;23.30;;;9.70;91.10;;;;;;4970782;28;20038;-67
2022/03/20 13:20:23;;;;;;;30.20;21.43;;;9.60;90.50;;;;;;4967953;28;20023;-67
2022/03/20 13:22:49;;;;;;;24.90;21.47;;;;;;;;;;4971367;28;20030;-67
2022/03/20 13:25:20;;;;;;;28.80;20.30;;;9.80;76.20;;;;;;4971383;28;20109;-68
2022/03/20 13:27:48;;;;;;;29.83;22.43;;;9.70;91.50;;;;;;4970809;28;20081;-68
2022/03/20 13:30:15;;;;;;;25.93;19.77;;;9.70;91.80;;;;;;4970894;28;20114;-68